sensor_id;sensor_type;location;lat;lon;timestamp;pressure;altitude;pressure_sealevel;temperature
61703;BMP280;47622;47.726;3.298;2022-08-03T00:00:06;99118.34;;;19.56
61703;BMP280;47622;47.726;3.298;2022-08-03T00:02:32;99129.44;;;19.65
61703;BMP280;47622;47.726;3.298;2022-08-03T00:04:58;99132.06;;;19.58
61703;BMP280;47622;47.726;3.298;2022-08-03T00:07:23;99132.41;;;19.56
61703;BMP280;47622;47.726;3.298;2022-08-03T00:09:49;99119.78;;;19.50
61703;BMP280;47622;47.726;3.298;2022-08-03T00:12:15;99125.47;;;19.48
61703;BMP280;47622;47.726;3.298;2022-08-03T00:14:41;99123.78;;;19.37
61703;BMP280;47622;47.726;3.298;2022-08-03T00:17:08;99123.78;;;19.37
61703;BMP280;47622;47.726;3.298;2022-08-03T00:19:39;99131.09;;;19.40
61703;BMP280;47622;47.726;3.298;2022-08-03T00:22:05;99112.72;;;19.31
61703;BMP280;47622;47.726;3.298;2022-08-03T00:24:31;99110.13;;;19.35
61703;BMP280;47622;47.726;3.298;2022-08-03T00:26:56;99126.09;;;19.35
61703;BMP280;47622;47.726;3.298;2022-08-03T00:29:22;99121.91;;;19.37
61703;BMP280;47622;47.726;3.298;2022-08-03T00:31:48;99123.78;;;19.37
61703;BMP280;47622;47.726;3.298;2022-08-03T00:34:14;99122.91;;;19.25
61703;BMP280;47622;47.726;3.298;2022-08-03T00:36:40;99116.47;;;19.26
61703;BMP280;47622;47.726;3.298;2022-08-03T00:39:06;99113.63;;;19.12
61703;BMP280;47622;47.726;3.298;2022-08-03T00:41:34;99110.84;;;19.05
61703;BMP280;47622;47.726;3.298;2022-08-03T00:44:00;99107.06;;;19.06
61703;BMP280;47622;47.726;3.298;2022-08-03T00:46:27;99108.19;;;19.05
61703;BMP280;47622;47.726;3.298;2022-08-03T00:48:53;99113.19;;;19.10
61703;BMP280;47622;47.726;3.298;2022-08-03T00:51:20;99104.88;;;19.12
61703;BMP280;47622;47.726;3.298;2022-08-03T00:53:46;99109.03;;;19.09
61703;BMP280;47622;47.726;3.298;2022-08-03T00:56:14;99104.34;;;18.99
61703;BMP280;47622;47.726;3.298;2022-08-03T00:58:40;99102.69;;;18.91
61703;BMP280;47622;47.726;3.298;2022-08-03T01:01:09;99102.28;;;18.89
61703;BMP280;47622;47.726;3.298;2022-08-03T01:03:36;99087.78;;;18.83
61703;BMP280;47622;47.726;3.298;2022-08-03T01:09:49;99086.13;;;18.75
61703;BMP280;47622;47.726;3.298;2022-08-03T01:12:23;99091.06;;;18.73
61703;BMP280;47622;47.726;3.298;2022-08-03T01:15:14;99089.47;;;18.68
61703;BMP280;47622;47.726;3.298;2022-08-03T01:18:02;99087.19;;;18.70
61703;BMP280;47622;47.726;3.298;2022-08-03T01:20:35;99087.16;;;18.67
61703;BMP280;47622;47.726;3.298;2022-08-03T01:31:54;99084.84;;;18.65
61703;BMP280;47622;47.726;3.298;2022-08-03T01:34:27;99089.31;;;18.57
61703;BMP280;47622;47.726;3.298;2022-08-03T01:36:55;99096.09;;;18.55
61703;BMP280;47622;47.726;3.298;2022-08-03T01:39:23;99096.75;;;18.48
61703;BMP280;47622;47.726;3.298;2022-08-03T01:41:59;99101.28;;;18.48
61703;BMP280;47622;47.726;3.298;2022-08-03T01:44:33;99093.97;;;18.41
61703;BMP280;47622;47.726;3.298;2022-08-03T01:47:02;99098.94;;;18.43
61703;BMP280;47622;47.726;3.298;2022-08-03T01:49:29;99085.19;;;18.37
61703;BMP280;47622;47.726;3.298;2022-08-03T01:51:57;99088.94;;;18.36
61703;BMP280;47622;47.726;3.298;2022-08-03T01:54:27;99088.09;;;18.29
61703;BMP280;47622;47.726;3.298;2022-08-03T01:56:55;99087.44;;;18.35
61703;BMP280;47622;47.726;3.298;2022-08-03T01:59:24;99072.00;;;18.21
61703;BMP280;47622;47.726;3.298;2022-08-03T02:01:52;99066.53;;;18.11
61703;BMP280;47622;47.726;3.298;2022-08-03T02:04:18;99083.41;;;18.22
61703;BMP280;47622;47.726;3.298;2022-08-03T02:06:45;99068.03;;;18.12
61703;BMP280;47622;47.726;3.298;2022-08-03T02:09:14;99059.41;;;18.15
61703;BMP280;47622;47.726;3.298;2022-08-03T02:11:41;99059.41;;;18.15
61703;BMP280;47622;47.726;3.298;2022-08-03T02:14:08;99052.28;;;18.19
61703;BMP280;47622;47.726;3.298;2022-08-03T02:16:36;99056.09;;;18.21
61703;BMP280;47622;47.726;3.298;2022-08-03T02:19:04;99062.16;;;18.22
61703;BMP280;47622;47.726;3.298;2022-08-03T02:21:35;99068.72;;;18.28
61703;BMP280;47622;47.726;3.298;2022-08-03T02:24:03;99068.28;;;18.26
61703;BMP280;47622;47.726;3.298;2022-08-03T02:26:30;99061.88;;;18.27
61703;BMP280;47622;47.726;3.298;2022-08-03T02:29:10;99067.19;;;18.27
61703;BMP280;47622;47.726;3.298;2022-08-03T02:31:38;99065.09;;;18.17
61703;BMP280;47622;47.726;3.298;2022-08-03T02:34:08;99064.25;;;18.09
61703;BMP280;47622;47.726;3.298;2022-08-03T02:36:37;99061.88;;;18.04
61703;BMP280;47622;47.726;3.298;2022-08-03T02:39:10;99057.84;;;17.91
61703;BMP280;47622;47.726;3.298;2022-08-03T02:41:39;99056.56;;;17.81
61703;BMP280;47622;47.726;3.298;2022-08-03T02:44:08;99055.31;;;17.75
61703;BMP280;47622;47.726;3.298;2022-08-03T02:46:40;99064.34;;;17.74
61703;BMP280;47622;47.726;3.298;2022-08-03T02:49:06;99059.88;;;17.78
61703;BMP280;47622;47.726;3.298;2022-08-03T02:51:35;99059.50;;;17.76
61703;BMP280;47622;47.726;3.298;2022-08-03T02:54:03;99045.41;;;17.72
61703;BMP280;47622;47.726;3.298;2022-08-03T02:56:32;99050.00;;;17.75
61703;BMP280;47622;47.726;3.298;2022-08-03T02:58:59;99052.53;;;17.68
61703;BMP280;47622;47.726;3.298;2022-08-03T03:01:26;99046.63;;;17.59
61703;BMP280;47622;47.726;3.298;2022-08-03T03:03:55;99049.75;;;17.61
61703;BMP280;47622;47.726;3.298;2022-08-03T03:06:23;99049.16;;;17.71
61703;BMP280;47622;47.726;3.298;2022-08-03T03:08:52;99049.88;;;17.68
61703;BMP280;47622;47.726;3.298;2022-08-03T03:11:21;99058.66;;;17.72
61703;BMP280;47622;47.726;3.298;2022-08-03T03:13:48;99043.47;;;17.50
61703;BMP280;47622;47.726;3.298;2022-08-03T03:16:16;99055.47;;;17.63
61703;BMP280;47622;47.726;3.298;2022-08-03T03:18:46;99055.06;;;17.65
61703;BMP280;47622;47.726;3.298;2022-08-03T03:21:15;99049.75;;;17.61
61703;BMP280;47622;47.726;3.298;2022-08-03T03:23:42;99055.88;;;17.65
61703;BMP280;47622;47.726;3.298;2022-08-03T03:26:08;99059.63;;;17.64
61703;BMP280;47622;47.726;3.298;2022-08-03T03:28:34;99057.81;;;17.68
61703;BMP280;47622;47.726;3.298;2022-08-03T03:31:07;99055.88;;;17.65
61703;BMP280;47622;47.726;3.298;2022-08-03T03:33:37;99055.06;;;17.65
61703;BMP280;47622;47.726;3.298;2022-08-03T03:36:06;99054.69;;;17.63
61703;BMP280;47622;47.726;3.298;2022-08-03T03:38:33;99049.75;;;17.61
61703;BMP280;47622;47.726;3.298;2022-08-03T03:40:59;99044.09;;;17.63
61703;BMP280;47622;47.726;3.298;2022-08-03T03:43:25;99037.88;;;17.55
61703;BMP280;47622;47.726;3.298;2022-08-03T03:45:54;99039.53;;;17.63
61703;BMP280;47622;47.726;3.298;2022-08-03T03:48:21;99051.28;;;17.62
61703;BMP280;47622;47.726;3.298;2022-08-03T03:50:54;99036.63;;;17.49
61703;BMP280;47622;47.726;3.298;2022-08-03T03:53:21;99043.47;;;17.50
61703;BMP280;47622;47.726;3.298;2022-08-03T03:55:51;99043.31;;;17.43
61703;BMP280;47622;47.726;3.298;2022-08-03T03:58:27;99056.28;;;17.48
61703;BMP280;47622;47.726;3.298;2022-08-03T04:00:53;99051.69;;;17.45
61703;BMP280;47622;47.726;3.298;2022-08-03T04:03:18;99053.22;;;17.46
61703;BMP280;47622;47.726;3.298;2022-08-03T04:05:44;99053.66;;;17.48
61703;BMP280;47622;47.726;3.298;2022-08-03T04:08:33;99060.75;;;17.44
61703;BMP280;47622;47.726;3.298;2022-08-03T04:11:27;99050.28;;;17.32
61703;BMP280;47622;47.726;3.298;2022-08-03T04:14:02;99059.91;;;17.40
61703;BMP280;47622;47.726;3.298;2022-08-03T04:16:33;99059.22;;;17.43
61703;BMP280;47622;47.726;3.298;2022-08-03T04:19:09;99057.25;;;17.20
61703;BMP280;47622;47.726;3.298;2022-08-03T04:21:40;99078.13;;;17.41
61703;BMP280;47622;47.726;3.298;2022-08-03T04:24:09;99072.59;;;17.31
61703;BMP280;47622;47.726;3.298;2022-08-03T04:26:38;99063.28;;;17.17
61703;BMP280;47622;47.726;3.298;2022-08-03T04:29:05;99073.00;;;17.13
61703;BMP280;47622;47.726;3.298;2022-08-03T04:31:31;99071.88;;;17.14
61703;BMP280;47622;47.726;3.298;2022-08-03T04:33:58;99056.25;;;17.09
61703;BMP280;47622;47.726;3.298;2022-08-03T04:36:25;99062.69;;;17.08
61703;BMP280;47622;47.726;3.298;2022-08-03T04:41:27;99069.44;;;17.06
61703;BMP280;47622;47.726;3.298;2022-08-03T04:43:55;99069.66;;;16.97
61703;BMP280;47622;47.726;3.298;2022-08-03T04:46:31;99066.00;;;17.05
61703;BMP280;47622;47.726;3.298;2022-08-03T04:49:00;99073.56;;;17.03
61703;BMP280;47622;47.726;3.298;2022-08-03T04:51:26;99068.25;;;17.03
61703;BMP280;47622;47.726;3.298;2022-08-03T04:53:55;99075.22;;;17.11
61703;BMP280;47622;47.726;3.298;2022-08-03T04:56:21;99074.63;;;17.18
61703;BMP280;47622;47.726;3.298;2022-08-03T04:58:47;99068.69;;;17.24
61703;BMP280;47622;47.726;3.298;2022-08-03T05:01:12;99076.38;;;17.30
61703;BMP280;47622;47.726;3.298;2022-08-03T05:03:39;99068.28;;;17.42
61703;BMP280;47622;47.726;3.298;2022-08-03T05:06:04;99070.41;;;17.52
61703;BMP280;47622;47.726;3.298;2022-08-03T05:08:30;99078.47;;;17.78
61703;BMP280;47622;47.726;3.298;2022-08-03T05:10:56;99075.13;;;17.81
61703;BMP280;47622;47.726;3.298;2022-08-03T05:13:28;99078.59;;;17.85
61703;BMP280;47622;47.726;3.298;2022-08-03T05:15:54;99075.41;;;17.76
61703;BMP280;47622;47.726;3.298;2022-08-03T05:18:20;99079.72;;;17.84
61703;BMP280;47622;47.726;3.298;2022-08-03T05:20:45;99076.66;;;17.82
61703;BMP280;47622;47.726;3.298;2022-08-03T05:23:14;99077.63;;;17.74
61703;BMP280;47622;47.726;3.298;2022-08-03T05:25:40;99080.00;;;17.79
61703;BMP280;47622;47.726;3.298;2022-08-03T05:28:09;99081.97;;;17.82
61703;BMP280;47622;47.726;3.298;2022-08-03T05:30:41;99088.16;;;17.90
61703;BMP280;47622;47.726;3.298;2022-08-03T05:33:07;99088.22;;;17.93
61703;BMP280;47622;47.726;3.298;2022-08-03T05:35:32;99075.50;;;18.03
61703;BMP280;47622;47.726;3.298;2022-08-03T05:38:04;99086.63;;;18.12
61703;BMP280;47622;47.726;3.298;2022-08-03T05:40:30;99080.59;;;18.11
61703;BMP280;47622;47.726;3.298;2022-08-03T05:42:56;99080.22;;;18.13
61703;BMP280;47622;47.726;3.298;2022-08-03T05:45:28;99084.13;;;18.19
61703;BMP280;47622;47.726;3.298;2022-08-03T05:47:54;99081.88;;;18.21
61703;BMP280;47622;47.726;3.298;2022-08-03T05:50:21;99083.41;;;18.22
61703;BMP280;47622;47.726;3.298;2022-08-03T05:52:48;99080.53;;;18.31
61703;BMP280;47622;47.726;3.298;2022-08-03T05:55:13;99090.94;;;18.39
61703;BMP280;47622;47.726;3.298;2022-08-03T05:57:39;99091.03;;;18.46
61703;BMP280;47622;47.726;3.298;2022-08-03T06:00:09;99071.72;;;18.49
61703;BMP280;47622;47.726;3.298;2022-08-03T06:02:36;99087.84;;;18.64
61703;BMP280;47622;47.726;3.298;2022-08-03T06:05:02;99088.06;;;18.78
61703;BMP280;47622;47.726;3.298;2022-08-03T06:07:28;99077.59;;;18.88
61703;BMP280;47622;47.726;3.298;2022-08-03T06:09:56;99074.31;;;18.99
61703;BMP280;47622;47.726;3.298;2022-08-03T06:12:22;99082.53;;;19.16
61703;BMP280;47622;47.726;3.298;2022-08-03T06:14:47;99090.94;;;19.22
61703;BMP280;47622;47.726;3.298;2022-08-03T06:17:13;99082.78;;;19.38
61703;BMP280;47622;47.726;3.298;2022-08-03T06:19:39;99075.28;;;19.47
61703;BMP280;47622;47.726;3.298;2022-08-03T06:22:08;99080.06;;;19.68
61703;BMP280;47622;47.726;3.298;2022-08-03T06:24:33;99080.91;;;19.75
61703;BMP280;47622;47.726;3.298;2022-08-03T06:26:59;99084.09;;;19.91
61703;BMP280;47622;47.726;3.298;2022-08-03T06:29:25;99087.72;;;20.64
61703;BMP280;47622;47.726;3.298;2022-08-03T06:31:50;99097.69;;;22.00
61703;BMP280;47622;47.726;3.298;2022-08-03T06:34:16;99089.50;;;23.00
61703;BMP280;47622;47.726;3.298;2022-08-03T06:36:42;99086.94;;;24.37
61703;BMP280;47622;47.726;3.298;2022-08-03T06:39:07;99106.13;;;26.83
61703;BMP280;47622;47.726;3.298;2022-08-03T06:41:36;99103.00;;;28.68
61703;BMP280;47622;47.726;3.298;2022-08-03T06:44:02;99098.75;;;28.42
61703;BMP280;47622;47.726;3.298;2022-08-03T06:46:27;99093.75;;;27.70
61703;BMP280;47622;47.726;3.298;2022-08-03T06:48:53;99093.34;;;26.71
61703;BMP280;47622;47.726;3.298;2022-08-03T06:51:20;99097.66;;;26.05
61703;BMP280;47622;47.726;3.298;2022-08-03T06:53:47;99092.22;;;25.62
61703;BMP280;47622;47.726;3.298;2022-08-03T06:56:13;99089.69;;;25.28
61703;BMP280;47622;47.726;3.298;2022-08-03T06:58:38;99096.00;;;25.15
61703;BMP280;47622;47.726;3.298;2022-08-03T07:01:07;99093.13;;;24.99
61703;BMP280;47622;47.726;3.298;2022-08-03T07:03:33;99081.50;;;24.78
61703;BMP280;47622;47.726;3.298;2022-08-03T07:05:58;99087.88;;;24.91
61703;BMP280;47622;47.726;3.298;2022-08-03T07:08:24;99083.63;;;25.21
61703;BMP280;47622;47.726;3.298;2022-08-03T07:10:50;99088.66;;;25.92
61703;BMP280;47622;47.726;3.298;2022-08-03T07:13:15;99105.97;;;26.90
61703;BMP280;47622;47.726;3.298;2022-08-03T07:15:41;99106.63;;;28.49
61703;BMP280;47622;47.726;3.298;2022-08-03T07:18:07;99102.81;;;28.34
61703;BMP280;47622;47.726;3.298;2022-08-03T07:20:33;99094.56;;;28.12
61703;BMP280;47622;47.726;3.298;2022-08-03T07:22:59;99099.47;;;27.72
61703;BMP280;47622;47.726;3.298;2022-08-03T07:25:25;99104.34;;;27.77
61703;BMP280;47622;47.726;3.298;2022-08-03T07:27:51;99097.59;;;27.69
61703;BMP280;47622;47.726;3.298;2022-08-03T07:30:17;99097.78;;;27.78
61703;BMP280;47622;47.726;3.298;2022-08-03T07:32:43;99105.19;;;28.19
61703;BMP280;47622;47.726;3.298;2022-08-03T07:35:09;99117.53;;;29.47
61703;BMP280;47622;47.726;3.298;2022-08-03T07:37:36;99120.41;;;30.92
61703;BMP280;47622;47.726;3.298;2022-08-03T07:40:05;99130.03;;;33.05
61703;BMP280;47622;47.726;3.298;2022-08-03T07:42:31;99128.97;;;33.26
61703;BMP280;47622;47.726;3.298;2022-08-03T07:45:00;99128.97;;;33.26
61703;BMP280;47622;47.726;3.298;2022-08-03T07:47:28;99117.69;;;33.42
61703;BMP280;47622;47.726;3.298;2022-08-03T07:49:55;99116.78;;;34.53
61703;BMP280;47622;47.726;3.298;2022-08-03T07:52:22;99114.09;;;34.74
61703;BMP280;47622;47.726;3.298;2022-08-03T07:55:08;99115.91;;;34.97
61703;BMP280;47622;47.726;3.298;2022-08-03T07:57:34;99128.66;;;35.83
61703;BMP280;47622;47.726;3.298;2022-08-03T08:00:00;99114.03;;;35.55
61703;BMP280;47622;47.726;3.298;2022-08-03T08:02:27;99130.94;;;35.90
61703;BMP280;47622;47.726;3.298;2022-08-03T08:04:53;99121.59;;;36.33
61703;BMP280;47622;47.726;3.298;2022-08-03T08:07:22;99115.97;;;37.18
61703;BMP280;47622;47.726;3.298;2022-08-03T08:09:51;99127.19;;;38.09
61703;BMP280;47622;47.726;3.298;2022-08-03T08:12:18;99122.34;;;38.38
61703;BMP280;47622;47.726;3.298;2022-08-03T08:14:47;99129.13;;;38.94
61703;BMP280;47622;47.726;3.298;2022-08-03T08:17:14;99135.03;;;39.99
61703;BMP280;47622;47.726;3.298;2022-08-03T08:19:40;99141.19;;;40.29
61703;BMP280;47622;47.726;3.298;2022-08-03T08:22:05;99136.34;;;41.55
61703;BMP280;47622;47.726;3.298;2022-08-03T08:24:32;99137.19;;;42.28
61703;BMP280;47622;47.726;3.298;2022-08-03T08:26:59;99121.09;;;42.06
61703;BMP280;47622;47.726;3.298;2022-08-03T08:29:26;99135.00;;;43.02
61703;BMP280;47622;47.726;3.298;2022-08-03T08:31:52;99132.75;;;43.99
61703;BMP280;47622;47.726;3.298;2022-08-03T08:34:19;99146.13;;;44.30
61703;BMP280;47622;47.726;3.298;2022-08-03T08:36:45;99140.22;;;44.26
61703;BMP280;47622;47.726;3.298;2022-08-03T08:39:10;99143.56;;;44.40
61703;BMP280;47622;47.726;3.298;2022-08-03T08:41:36;99135.56;;;44.72
61703;BMP280;47622;47.726;3.298;2022-08-03T08:44:02;99148.06;;;45.19
61703;BMP280;47622;47.726;3.298;2022-08-03T08:46:32;99141.81;;;44.73
61703;BMP280;47622;47.726;3.298;2022-08-03T08:49:00;99151.00;;;44.53
61703;BMP280;47622;47.726;3.298;2022-08-03T08:51:30;99144.97;;;44.99
61703;BMP280;47622;47.726;3.298;2022-08-03T08:54:01;99133.34;;;45.01
61703;BMP280;47622;47.726;3.298;2022-08-03T08:56:31;99145.88;;;44.94
61703;BMP280;47622;47.726;3.298;2022-08-03T08:59:01;99141.09;;;44.95
61703;BMP280;47622;47.726;3.298;2022-08-03T09:01:27;99139.13;;;43.58
61703;BMP280;47622;47.726;3.298;2022-08-03T09:03:53;99129.13;;;44.26
61703;BMP280;47622;47.726;3.298;2022-08-03T09:06:20;99139.72;;;44.51
61703;BMP280;47622;47.726;3.298;2022-08-03T09:08:46;99128.13;;;44.75
61703;BMP280;47622;47.726;3.298;2022-08-03T09:11:12;99145.13;;;44.79
61703;BMP280;47622;47.726;3.298;2022-08-03T09:13:38;99135.13;;;45.51
61703;BMP280;47622;47.726;3.298;2022-08-03T09:18:39;99132.16;;;45.34
61703;BMP280;47622;47.726;3.298;2022-08-03T09:21:24;99132.56;;;44.63
61703;BMP280;47622;47.726;3.298;2022-08-03T09:23:53;99118.97;;;43.78
61703;BMP280;47622;47.726;3.298;2022-08-03T09:26:29;99123.31;;;44.02
61703;BMP280;47622;47.726;3.298;2022-08-03T09:29:07;99116.44;;;42.82
61703;BMP280;47622;47.726;3.298;2022-08-03T09:31:38;99122.63;;;42.75
61703;BMP280;47622;47.726;3.298;2022-08-03T09:34:09;99127.34;;;42.07
61703;BMP280;47622;47.726;3.298;2022-08-03T09:36:46;99127.22;;;40.83
61703;BMP280;47622;47.726;3.298;2022-08-03T09:41:44;99128.75;;;39.44
61703;BMP280;47622;47.726;3.298;2022-08-03T09:44:11;99110.19;;;39.56
61703;BMP280;47622;47.726;3.298;2022-08-03T09:46:53;99106.56;;;39.07
61703;BMP280;47622;47.726;3.298;2022-08-03T09:49:22;99100.28;;;38.71
61703;BMP280;47622;47.726;3.298;2022-08-03T09:51:48;99102.75;;;39.51
61703;BMP280;47622;47.726;3.298;2022-08-03T09:54:30;99102.97;;;39.17
61703;BMP280;47622;47.726;3.298;2022-08-03T09:56:58;99105.50;;;39.75
61703;BMP280;47622;47.726;3.298;2022-08-03T09:59:26;99095.28;;;39.46
61703;BMP280;47622;47.726;3.298;2022-08-03T10:01:53;99087.72;;;39.22
61703;BMP280;47622;47.726;3.298;2022-08-03T10:04:19;99093.75;;;39.20
61703;BMP280;47622;47.726;3.298;2022-08-03T10:07:05;99091.00;;;39.20
61703;BMP280;47622;47.726;3.298;2022-08-03T10:09:34;99083.22;;;39.24
61703;BMP280;47622;47.726;3.298;2022-08-03T10:12:08;99096.00;;;38.75
61703;BMP280;47622;47.726;3.298;2022-08-03T10:14:36;99084.47;;;38.42
61703;BMP280;47622;47.726;3.298;2022-08-03T10:17:02;99084.84;;;39.39
61703;BMP280;47622;47.726;3.298;2022-08-03T10:19:28;99086.94;;;39.57
61703;BMP280;47622;47.726;3.298;2022-08-03T10:21:55;99092.13;;;39.66
61703;BMP280;47622;47.726;3.298;2022-08-03T10:24:27;99081.41;;;39.87
61703;BMP280;47622;47.726;3.298;2022-08-03T10:27:05;99088.63;;;40.14
61703;BMP280;47622;47.726;3.298;2022-08-03T10:29:44;99074.91;;;39.36
61703;BMP280;47622;47.726;3.298;2022-08-03T10:32:37;99082.72;;;39.56
61703;BMP280;47622;47.726;3.298;2022-08-03T10:35:14;99080.91;;;39.88
61703;BMP280;47622;47.726;3.298;2022-08-03T10:37:42;99081.97;;;39.55
61703;BMP280;47622;47.726;3.298;2022-08-03T10:40:15;99084.38;;;39.64
61703;BMP280;47622;47.726;3.298;2022-08-03T10:42:45;99078.94;;;39.83
61703;BMP280;47622;47.726;3.298;2022-08-03T10:45:20;99075.16;;;39.62
61703;BMP280;47622;47.726;3.298;2022-08-03T10:47:47;99073.78;;;39.20
61703;BMP280;47622;47.726;3.298;2022-08-03T10:50:13;99082.63;;;39.91
61703;BMP280;47622;47.726;3.298;2022-08-03T10:53:02;99062.72;;;39.61
61703;BMP280;47622;47.726;3.298;2022-08-03T10:55:40;99062.78;;;39.98
61703;BMP280;47622;47.726;3.298;2022-08-03T11:03:29;99059.28;;;39.49
61703;BMP280;47622;47.726;3.298;2022-08-03T11:06:15;99067.66;;;39.62
61703;BMP280;47622;47.726;3.298;2022-08-03T11:08:46;99061.06;;;39.71
61703;BMP280;47622;47.726;3.298;2022-08-03T11:13:58;99062.44;;;39.35
61703;BMP280;47622;47.726;3.298;2022-08-03T11:16:26;99062.31;;;39.70
61703;BMP280;47622;47.726;3.298;2022-08-03T11:19:00;99061.91;;;40.09
61703;BMP280;47622;47.726;3.298;2022-08-03T11:40:51;99042.97;;;39.81
61703;BMP280;47622;47.726;3.298;2022-08-03T11:46:06;99052.94;;;39.84
61703;BMP280;47622;47.726;3.298;2022-08-03T11:48:38;99038.75;;;39.56
61703;BMP280;47622;47.726;3.298;2022-08-03T11:51:19;99039.59;;;39.15
61703;BMP280;47622;47.726;3.298;2022-08-03T11:53:46;99034.72;;;39.33
61703;BMP280;47622;47.726;3.298;2022-08-03T11:56:12;99026.72;;;39.05
61703;BMP280;47622;47.726;3.298;2022-08-03T11:58:55;99028.63;;;39.15
61703;BMP280;47622;47.726;3.298;2022-08-03T12:01:22;99020.81;;;38.95
61703;BMP280;47622;47.726;3.298;2022-08-03T12:03:50;99023.53;;;38.60
61703;BMP280;47622;47.726;3.298;2022-08-03T12:06:20;99030.56;;;38.91
61703;BMP280;47622;47.726;3.298;2022-08-03T12:08:46;99021.47;;;39.37
61703;BMP280;47622;47.726;3.298;2022-08-03T12:11:13;99019.75;;;39.58
61703;BMP280;47622;47.726;3.298;2022-08-03T12:13:48;99028.75;;;39.83
61703;BMP280;47622;47.726;3.298;2022-08-03T12:16:23;99025.47;;;39.84
61703;BMP280;47622;47.726;3.298;2022-08-03T12:19:00;99024.16;;;39.12
61703;BMP280;47622;47.726;3.298;2022-08-03T12:21:28;99024.31;;;37.97
61703;BMP280;47622;47.726;3.298;2022-08-03T12:23:58;99008.97;;;37.16
61703;BMP280;47622;47.726;3.298;2022-08-03T12:26:25;99010.97;;;38.29
61703;BMP280;47622;47.726;3.298;2022-08-03T12:28:52;99005.28;;;38.21
61703;BMP280;47622;47.726;3.298;2022-08-03T12:31:18;99020.53;;;38.58
61703;BMP280;47622;47.726;3.298;2022-08-03T12:34:04;99011.88;;;38.48
61703;BMP280;47622;47.726;3.298;2022-08-03T12:36:33;99005.56;;;38.59
61703;BMP280;47622;47.726;3.298;2022-08-03T12:39:08;99009.91;;;39.19
61703;BMP280;47622;47.726;3.298;2022-08-03T12:41:37;99000.78;;;39.00
61703;BMP280;47622;47.726;3.298;2022-08-03T12:44:04;99011.25;;;38.25
61703;BMP280;47622;47.726;3.298;2022-08-03T12:46:39;99001.34;;;38.93
61703;BMP280;47622;47.726;3.298;2022-08-03T12:49:11;99009.72;;;38.76
61703;BMP280;47622;47.726;3.298;2022-08-03T12:54:14;98996.41;;;38.86
61703;BMP280;47622;47.726;3.298;2022-08-03T12:57:02;99002.44;;;39.39
61703;BMP280;47622;47.726;3.298;2022-08-03T12:59:34;99002.91;;;39.43
61703;BMP280;47622;47.726;3.298;2022-08-03T13:02:02;99000.09;;;39.48
61703;BMP280;47622;47.726;3.298;2022-08-03T13:04:32;98992.09;;;38.61
61703;BMP280;47622;47.726;3.298;2022-08-03T13:07:04;98995.63;;;38.56
61703;BMP280;47622;47.726;3.298;2022-08-03T13:09:53;98983.88;;;38.14
61703;BMP280;47622;47.726;3.298;2022-08-03T13:12:21;98983.34;;;38.21
61703;BMP280;47622;47.726;3.298;2022-08-03T13:14:50;98990.06;;;38.67
61703;BMP280;47622;47.726;3.298;2022-08-03T13:17:17;98999.09;;;38.62
61703;BMP280;47622;47.726;3.298;2022-08-03T13:19:46;98984.53;;;38.31
61703;BMP280;47622;47.726;3.298;2022-08-03T13:22:22;98971.09;;;38.22
61703;BMP280;47622;47.726;3.298;2022-08-03T13:24:51;98982.72;;;38.51
61703;BMP280;47622;47.726;3.298;2022-08-03T13:27:18;98980.47;;;39.14
61703;BMP280;47622;47.726;3.298;2022-08-03T13:29:45;98993.88;;;39.48
61703;BMP280;47622;47.726;3.298;2022-08-03T13:32:11;98982.75;;;39.59
61703;BMP280;47622;47.726;3.298;2022-08-03T13:34:39;98992.03;;;39.80
61703;BMP280;47622;47.726;3.298;2022-08-03T13:37:05;98977.41;;;39.18
61703;BMP280;47622;47.726;3.298;2022-08-03T13:39:32;98974.84;;;39.01
61703;BMP280;47622;47.726;3.298;2022-08-03T13:41:58;98966.56;;;38.77
61703;BMP280;47622;47.726;3.298;2022-08-03T13:44:24;98965.47;;;39.15
61703;BMP280;47622;47.726;3.298;2022-08-03T13:46:50;98961.88;;;38.96
61703;BMP280;47622;47.726;3.298;2022-08-03T13:49:15;98967.53;;;39.34
61703;BMP280;47622;47.726;3.298;2022-08-03T13:51:41;98962.91;;;38.93
61703;BMP280;47622;47.726;3.298;2022-08-03T13:54:07;98964.22;;;39.16
61703;BMP280;47622;47.726;3.298;2022-08-03T13:56:33;98957.25;;;39.40
61703;BMP280;47622;47.726;3.298;2022-08-03T13:58:59;98958.22;;;39.42
61703;BMP280;47622;47.726;3.298;2022-08-03T14:01:26;98956.00;;;39.41
61703;BMP280;47622;47.726;3.298;2022-08-03T14:03:52;98951.75;;;39.40
61703;BMP280;47622;47.726;3.298;2022-08-03T14:06:27;98956.44;;;39.20
61703;BMP280;47622;47.726;3.298;2022-08-03T14:08:53;98942.25;;;39.16
61703;BMP280;47622;47.726;3.298;2022-08-03T14:11:19;98956.75;;;39.41
61703;BMP280;47622;47.726;3.298;2022-08-03T14:13:45;98931.28;;;38.57
61703;BMP280;47622;47.726;3.298;2022-08-03T14:16:11;98933.97;;;38.62
61703;BMP280;47622;47.726;3.298;2022-08-03T14:18:37;98935.78;;;37.45
61703;BMP280;47622;47.726;3.298;2022-08-03T14:21:04;98919.28;;;37.67
61703;BMP280;47622;47.726;3.298;2022-08-03T14:23:30;98909.94;;;37.01
61703;BMP280;47622;47.726;3.298;2022-08-03T14:25:59;98914.91;;;36.86
61703;BMP280;47622;47.726;3.298;2022-08-03T14:28:27;98927.84;;;37.24
61703;BMP280;47622;47.726;3.298;2022-08-03T14:30:53;98922.09;;;37.17
61703;BMP280;47622;47.726;3.298;2022-08-03T14:33:23;98913.44;;;37.18
61703;BMP280;47622;47.726;3.298;2022-08-03T14:35:50;98900.00;;;37.09
61703;BMP280;47622;47.726;3.298;2022-08-03T14:38:17;98898.16;;;37.56
61703;BMP280;47622;47.726;3.298;2022-08-03T14:40:43;98913.78;;;37.78
61703;BMP280;47622;47.726;3.298;2022-08-03T14:43:09;98909.72;;;37.90
61703;BMP280;47622;47.726;3.298;2022-08-03T14:45:40;98909.81;;;37.68
61703;BMP280;47622;47.726;3.298;2022-08-03T14:48:07;98900.84;;;37.73
61703;BMP280;47622;47.726;3.298;2022-08-03T14:50:33;98902.19;;;37.22
61703;BMP280;47622;47.726;3.298;2022-08-03T14:52:59;98890.00;;;37.28
61703;BMP280;47622;47.726;3.298;2022-08-03T14:55:27;98892.53;;;36.82
61703;BMP280;47622;47.726;3.298;2022-08-03T14:57:52;98882.06;;;36.80
61703;BMP280;47622;47.726;3.298;2022-08-03T15:00:18;98897.25;;;36.98
61703;BMP280;47622;47.726;3.298;2022-08-03T15:02:48;98887.81;;;36.99
61703;BMP280;47622;47.726;3.298;2022-08-03T15:05:16;98885.81;;;37.00
61703;BMP280;47622;47.726;3.298;2022-08-03T15:07:42;98892.00;;;37.22
61703;BMP280;47622;47.726;3.298;2022-08-03T15:10:07;98889.00;;;37.31